createdAt,value
2016-02-26T00:00:46.437Z,0
2016-02-26T00:01:46.394Z,0
2016-02-26T00:02:46.365Z,0
2016-02-26T00:03:46.337Z,0
2016-02-26T00:04:46.307Z,0
2016-02-26T00:05:46.295Z,0
2016-02-26T00:06:46.251Z,0
2016-02-26T00:07:46.206Z,0
2016-02-26T00:08:46.178Z,0
2016-02-26T00:09:46.148Z,0
2016-02-26T00:10:46.120Z,0
2016-02-26T00:11:46.108Z,0
2016-02-26T00:12:46.111Z,0
2016-02-26T00:13:46.019Z,0
2016-02-26T00:14:45.992Z,0
2016-02-26T00:15:46.009Z,0
2016-02-26T00:16:45.934Z,0
2016-02-26T00:17:45.952Z,0
2016-02-26T00:18:45.892Z,0
2016-02-26T00:19:45.864Z,0
2016-02-26T00:20:45.804Z,0
2016-02-26T00:21:45.791Z,0
2016-02-26T00:22:45.747Z,0
2016-02-26T00:23:45.733Z,0
2016-02-26T00:24:45.689Z,0
2016-02-26T00:25:45.708Z,0
2016-02-26T00:26:45.632Z,0
2016-02-26T00:27:45.605Z,0
2016-02-26T00:28:45.575Z,0
2016-02-26T00:29:45.577Z,0
2016-02-26T00:30:45.518Z,0
2016-02-26T00:31:45.505Z,0
2016-02-26T00:32:45.446Z,0
2016-02-26T00:33:45.432Z,0
2016-02-26T00:34:45.388Z,0
2016-02-26T00:35:45.344Z,0
2016-02-26T00:36:45.315Z,0
2016-02-26T00:37:45.303Z,0
2016-02-26T00:38:45.258Z,0
2016-02-26T00:39:45.229Z,0
2016-02-26T00:40:45.201Z,0
2016-02-26T00:41:45.157Z,0
2016-02-26T00:42:45.144Z,0
2016-02-26T00:43:45.115Z,0
2016-02-26T00:44:45.072Z,0
2016-02-26T00:45:45.043Z,0
2016-02-26T00:46:45.014Z,0
2016-02-26T00:47:44.970Z,0
2016-02-26T00:48:44.957Z,0
2016-02-26T00:49:44.913Z,0
2016-02-26T00:50:44.900Z,0
2016-02-26T00:51:44.856Z,0
2016-02-26T00:52:44.859Z,0
2016-02-26T00:53:44.799Z,0
2016-02-26T00:54:44.770Z,0
2016-02-26T00:55:44.726Z,0
2016-02-26T00:56:44.697Z,0
2016-02-26T00:57:44.669Z,0
2016-02-26T00:58:44.641Z,0
2016-02-26T00:59:44.597Z,0
2016-02-26T01:00:44.615Z,0
2016-02-26T01:01:44.554Z,0
2016-02-26T01:02:44.526Z,0
2016-02-26T01:03:44.483Z,0
2016-02-26T01:04:44.438Z,0
2016-02-26T01:05:44.425Z,0
2016-02-26T01:06:44.396Z,0
2016-02-26T01:07:44.368Z,0
2016-02-26T01:08:44.339Z,0
2016-02-26T01:09:44.295Z,0
2016-02-26T01:10:44.282Z,0
2016-02-26T01:11:44.226Z,0
2016-02-26T01:12:44.186Z,0
2016-02-26T01:13:44.145Z,0
2016-02-26T01:14:44.089Z,0
2016-02-26T01:15:44.048Z,0
2016-02-26T01:16:44.030Z,0
2016-02-26T01:17:44.012Z,0
2016-02-26T01:18:43.949Z,0
2016-02-26T01:19:43.916Z,0
2016-02-26T01:20:44.086Z,0
2016-02-26T01:21:43.838Z,0
2016-02-26T01:22:43.807Z,0
2016-02-26T01:23:43.777Z,0
2016-02-26T01:24:43.747Z,0
2016-02-26T01:25:43.717Z,0
2016-02-26T01:26:43.672Z,0
2016-02-26T01:27:43.689Z,0
2016-02-26T01:28:43.644Z,0
2016-02-26T01:29:43.584Z,0
2016-02-26T01:30:43.555Z,0
2016-02-26T01:31:43.525Z,0
2016-02-26T01:32:43.497Z,0
2016-02-26T01:33:43.468Z,0
2016-02-26T01:34:43.441Z,0
2016-02-26T01:35:43.411Z,0
2016-02-26T01:36:43.368Z,0
2016-02-26T01:37:43.338Z,0
2016-02-26T01:38:43.326Z,0
2016-02-26T01:39:43.282Z,0
2016-02-26T01:40:43.254Z,0
2016-02-26T01:41:43.224Z,0
2016-02-26T01:42:43.274Z,0
2016-02-26T01:43:43.152Z,0
2016-02-26T01:44:43.139Z,0
2016-02-26T01:45:43.110Z,0
2016-02-26T01:46:43.066Z,0
2016-02-26T01:47:43.038Z,0
2016-02-26T01:48:43.009Z,0
2016-02-26T01:49:42.965Z,0
2016-02-26T01:50:42.951Z,0
2016-02-26T01:51:42.923Z,0
2016-02-26T01:52:42.895Z,0
2016-02-26T01:53:42.851Z,0
2016-02-26T01:54:42.822Z,0
2016-02-26T01:55:42.794Z,0
2016-02-26T01:56:42.765Z,0
2016-02-26T01:57:42.675Z,0
2016-02-26T01:58:42.708Z,0
2016-02-26T01:59:42.664Z,0
2016-02-26T02:00:42.635Z,0
2016-02-26T02:01:42.606Z,0
2016-02-26T02:02:42.578Z,0
2016-02-26T02:03:42.549Z,0
2016-02-26T02:04:42.536Z,0
2016-02-26T02:05:42.492Z,0
2016-02-26T02:06:42.449Z,0
2016-02-26T02:07:42.419Z,0
2016-02-26T02:08:42.391Z,0
2016-02-26T02:09:42.362Z,0
2016-02-26T02:10:42.335Z,0
2016-02-26T02:11:42.305Z,0
2016-02-26T02:12:42.277Z,0
2016-02-26T02:13:42.248Z,0
2016-02-26T02:14:42.204Z,0
2016-02-26T02:15:42.176Z,0
2016-02-26T02:16:42.146Z,0
2016-02-26T02:17:42.118Z,0
2016-02-26T02:18:42.074Z,0
2016-02-26T02:19:42.076Z,0
2016-02-26T02:20:42.017Z,0
2016-02-26T02:21:42.004Z,0
2016-02-26T02:22:41.959Z,0
2016-02-26T02:23:41.931Z,0
2016-02-26T02:24:41.903Z,0
2016-02-26T02:25:41.859Z,0
2016-02-26T02:26:41.845Z,0
2016-02-26T02:27:41.801Z,0
2016-02-26T02:28:41.773Z,0
2016-02-26T02:29:41.745Z,0
2016-02-26T02:30:41.716Z,0
2016-02-26T02:31:41.687Z,0
2016-02-26T02:32:41.643Z,0
2016-02-26T02:33:41.615Z,0
2016-02-26T02:34:41.586Z,0
2016-02-26T02:35:41.558Z,0
2016-02-26T02:36:41.529Z,0
2016-02-26T02:37:41.485Z,0
2016-02-26T02:38:41.471Z,0
2016-02-26T02:39:41.427Z,0
2016-02-26T02:40:41.415Z,0
2016-02-26T02:41:41.371Z,0
2016-02-26T02:42:41.358Z,0
2016-02-26T02:43:41.360Z,0
2016-02-26T02:44:41.300Z,0
2016-02-26T02:45:41.256Z,0
2016-02-26T02:46:41.213Z,0
2016-02-26T02:47:41.184Z,0
2016-02-26T02:48:41.155Z,0
2016-02-26T02:49:41.126Z,0
2016-02-26T02:50:41.098Z,0
2016-02-26T02:51:41.069Z,0
2016-02-26T02:52:41.040Z,0
2016-02-26T02:53:41.012Z,0
2016-02-26T02:54:40.968Z,0
2016-02-26T02:55:40.940Z,0
2016-02-26T02:56:40.926Z,0
2016-02-26T02:57:40.881Z,0
2016-02-26T02:58:40.853Z,0
2016-02-26T02:59:40.810Z,0
2016-02-26T03:00:40.797Z,0
2016-02-26T03:01:40.753Z,0
2016-02-26T03:02:40.739Z,0
2016-02-26T03:03:40.695Z,0
2016-02-26T03:04:40.683Z,0
2016-02-26T03:05:40.658Z,0
2016-02-26T03:06:40.614Z,0
2016-02-26T03:07:40.571Z,0
2016-02-26T03:08:40.541Z,0
2016-02-26T03:09:40.514Z,0
2016-02-26T03:10:40.485Z,0
2016-02-26T03:11:40.458Z,0
2016-02-26T03:12:40.428Z,0
2016-02-26T03:13:40.400Z,0
2016-02-26T03:14:40.356Z,0
2016-02-26T03:15:40.343Z,0
2016-02-26T03:16:40.299Z,0
2016-02-26T03:17:40.269Z,0
2016-02-26T03:18:40.241Z,0
2016-02-26T03:19:40.229Z,0
2016-02-26T03:20:40.169Z,0
2016-02-26T03:21:40.171Z,0
2016-02-26T03:22:40.112Z,0
2016-02-26T03:23:40.098Z,0
2016-02-26T03:24:40.055Z,0
2016-02-26T03:25:40.073Z,0
2016-02-26T03:26:39.982Z,0
2016-02-26T03:27:39.953Z,0
2016-02-26T03:28:39.987Z,0
2016-02-26T03:29:39.896Z,0
2016-02-26T03:30:39.727Z,0
2016-02-26T03:31:39.839Z,0
2016-02-26T03:32:39.826Z,0
2016-02-26T03:33:39.766Z,0
2016-02-26T03:34:39.769Z,0
2016-02-26T03:35:39.709Z,0
2016-02-26T03:36:39.711Z,0
2016-02-26T03:37:39.668Z,0
2016-02-26T03:38:39.655Z,0
2016-02-26T03:39:39.595Z,0
2016-02-26T03:40:39.581Z,0
2016-02-26T03:41:39.366Z,0
2016-02-26T03:42:39.525Z,0
2016-02-26T03:43:39.481Z,0
2016-02-26T03:44:39.436Z,0
2016-02-26T03:45:39.392Z,0
2016-02-26T03:46:39.394Z,0
2016-02-26T03:47:39.335Z,0
2016-02-26T03:48:39.338Z,0
2016-02-26T03:49:39.277Z,0
2016-02-26T03:50:39.281Z,0
2016-02-26T03:51:39.221Z,0
2016-02-26T03:52:39.207Z,0
2016-02-26T03:53:39.148Z,0
2016-02-26T03:54:39.119Z,0
2016-02-26T03:55:39.107Z,0
2016-02-26T03:56:39.110Z,0
2016-02-26T03:57:39.034Z,0
2016-02-26T03:58:39.021Z,0
2016-02-26T03:59:38.961Z,0
2016-02-26T04:00:38.932Z,0
2016-02-26T04:01:38.904Z,0
2016-02-26T04:02:38.860Z,0
2016-02-26T04:03:38.893Z,0
2016-02-26T04:04:38.803Z,0
2016-02-26T04:05:38.789Z,0
2016-02-26T04:06:38.745Z,0
2016-02-26T04:07:38.733Z,0
2016-02-26T04:08:38.688Z,0
2016-02-26T04:09:38.659Z,0
2016-02-26T04:10:38.631Z,0
2016-02-26T04:11:38.618Z,0
2016-02-26T04:12:38.558Z,0
2016-02-26T04:13:38.531Z,0
2016-02-26T04:14:38.486Z,0
2016-02-26T04:15:38.489Z,0
2016-02-26T04:16:38.428Z,0
2016-02-26T04:17:38.400Z,0
2016-02-26T04:18:38.371Z,0
2016-02-26T04:19:38.358Z,0
2016-02-26T04:20:38.314Z,0
2016-02-26T04:21:38.286Z,0
2016-02-26T04:22:38.241Z,0
2016-02-26T04:23:38.213Z,0
2016-02-26T04:24:38.184Z,0
2016-02-26T04:25:38.140Z,0
2016-02-26T04:26:38.128Z,0
2016-02-26T04:27:38.099Z,0
2016-02-26T04:28:38.071Z,0
2016-02-26T04:29:38.042Z,0
2016-02-26T04:30:37.998Z,0
2016-02-26T04:31:37.968Z,0
2016-02-26T04:32:37.941Z,0
2016-02-26T04:33:37.912Z,0
2016-02-26T04:34:37.884Z,0
2016-02-26T04:35:37.854Z,0
2016-02-26T04:36:37.654Z,0
2016-02-26T04:37:37.797Z,0
2016-02-26T04:38:37.737Z,0
2016-02-26T04:39:37.726Z,0
2016-02-26T04:40:37.697Z,0
2016-02-26T04:41:37.699Z,0
2016-02-26T04:42:37.623Z,0
2016-02-26T04:43:37.595Z,0
2016-02-26T04:44:37.567Z,0
2016-02-26T04:45:37.539Z,0
2016-02-26T04:46:37.494Z,0
2016-02-26T04:47:37.481Z,0
2016-02-26T04:48:37.436Z,0
2016-02-26T04:49:37.408Z,0
2016-02-26T04:50:37.379Z,0
2016-02-26T04:51:37.351Z,0
2016-02-26T04:52:37.308Z,0
2016-02-26T04:53:37.294Z,0
2016-02-26T04:54:37.249Z,0
2016-02-26T04:55:37.221Z,0
2016-02-26T04:56:37.176Z,0
2016-02-26T04:57:37.164Z,0
2016-02-26T04:58:37.121Z,0
2016-02-26T04:59:37.091Z,0
2016-02-26T05:00:37.063Z,0
2016-02-26T05:01:37.018Z,0
2016-02-26T05:02:36.990Z,0
2016-02-26T05:03:36.961Z,0
2016-02-26T05:04:36.932Z,0
2016-02-26T05:05:36.894Z,0
2016-02-26T05:06:36.866Z,0
2016-02-26T05:07:36.837Z,0
2016-02-26T05:08:36.809Z,0
2016-02-26T05:09:36.796Z,0
2016-02-26T05:10:36.737Z,0
2016-02-26T05:11:36.707Z,0
2016-02-26T05:12:36.679Z,0
2016-02-26T05:13:36.666Z,0
2016-02-26T05:14:36.622Z,0
2016-02-26T05:15:36.578Z,0
2016-02-26T05:16:36.548Z,0
2016-02-26T05:17:36.537Z,0
2016-02-26T05:18:36.490Z,0
2016-02-26T05:19:36.476Z,0
2016-02-26T05:20:36.432Z,0
2016-02-26T05:21:36.388Z,0
2016-02-26T05:22:36.359Z,0
2016-02-26T05:23:36.331Z,0
2016-02-26T05:24:36.317Z,0
2016-02-26T05:25:36.274Z,0
2016-02-26T05:26:36.230Z,0
2016-02-26T05:27:36.201Z,0
2016-02-26T05:28:36.172Z,0
2016-02-26T05:29:36.144Z,0
2016-02-26T05:30:36.099Z,0
2016-02-26T05:31:36.072Z,0
2016-02-26T05:32:36.058Z,0
2016-02-26T05:33:36.029Z,0
2016-02-26T05:34:35.985Z,0
2016-02-26T05:35:35.941Z,0
2016-02-26T05:36:35.913Z,0
2016-02-26T05:37:35.885Z,0
2016-02-26T05:38:35.871Z,0
2016-02-26T05:39:35.827Z,0
2016-02-26T05:40:35.782Z,0
2016-02-26T05:41:35.754Z,0
2016-02-26T05:42:35.725Z,0
2016-02-26T05:43:35.697Z,0
2016-02-26T05:44:35.653Z,0
2016-02-26T05:45:35.624Z,0
2016-02-26T05:46:35.596Z,0
2016-02-26T05:47:35.583Z,0
2016-02-26T05:48:35.539Z,4
2016-02-26T05:49:35.510Z,4
2016-02-26T05:50:35.467Z,0
2016-02-26T05:51:35.453Z,4
2016-02-26T05:52:35.409Z,4
2016-02-26T05:53:35.381Z,4
2016-02-26T05:54:35.353Z,4
2016-02-26T05:55:35.308Z,8
2016-02-26T05:56:35.278Z,8
2016-02-26T05:57:35.251Z,8
2016-02-26T05:58:35.222Z,8
2016-02-26T05:59:35.193Z,12
2016-02-26T06:00:35.164Z,16
2016-02-26T06:01:35.136Z,20
2016-02-26T06:02:35.092Z,20
2016-02-26T06:03:35.048Z,24
2016-02-26T06:04:35.019Z,28
2016-02-26T06:05:35.007Z,36
2016-02-26T06:06:34.962Z,40
2016-02-26T06:07:34.933Z,48
2016-02-26T06:08:34.905Z,56
2016-02-26T06:09:34.877Z,68
2016-02-26T06:10:34.832Z,80
2016-02-26T06:11:34.804Z,92
2016-02-26T06:12:34.775Z,104
2016-02-26T06:13:34.746Z,124
2016-02-26T06:14:34.702Z,140
2016-02-26T06:15:34.690Z,160
2016-02-26T06:16:34.646Z,176
2016-02-26T06:17:34.617Z,200
2016-02-26T06:18:34.588Z,220
2016-02-26T06:19:34.559Z,248
2016-02-26T06:20:34.515Z,276
2016-02-26T06:21:34.486Z,300
2016-02-26T06:22:34.474Z,336
2016-02-26T06:23:34.445Z,368
2016-02-26T06:24:34.401Z,400
2016-02-26T06:25:34.372Z,440
2016-02-26T06:26:34.344Z,476
2016-02-26T06:27:34.300Z,520
2016-02-26T06:28:34.271Z,560
2016-02-26T06:29:34.243Z,608
2016-02-26T06:30:34.214Z,656
2016-02-26T06:31:34.170Z,704
2016-02-26T06:32:34.157Z,760
2016-02-26T06:33:34.113Z,816
2016-02-26T06:34:34.068Z,880
2016-02-26T06:35:34.056Z,948
2016-02-26T06:36:34.027Z,1020
2016-02-26T06:37:33.983Z,1096
2016-02-26T06:38:33.970Z,1188
2016-02-26T06:39:33.926Z,1288
2016-02-26T06:40:33.912Z,1384
2016-02-26T06:41:33.869Z,1476
2016-02-26T06:42:33.853Z,1548
2016-02-26T06:43:33.792Z,1632
2016-02-26T06:44:33.778Z,1728
2016-02-26T06:45:33.750Z,1824
2016-02-26T06:46:33.723Z,1908
2016-02-26T06:47:33.694Z,1992
2016-02-26T06:48:33.664Z,2076
2016-02-26T06:49:33.621Z,2160
2016-02-26T06:50:33.592Z,2232
2016-02-26T06:51:33.548Z,2284
2016-02-26T06:52:33.535Z,2324
2016-02-26T06:53:33.491Z,2388
2016-02-26T06:54:33.463Z,2456
2016-02-26T06:55:33.434Z,2508
2016-02-26T06:56:33.405Z,2528
2016-02-26T06:57:33.376Z,2536
2016-02-26T06:58:33.363Z,2552
2016-02-26T06:59:33.319Z,2576
2016-02-26T07:00:33.291Z,2636
2016-02-26T07:01:33.263Z,2672
2016-02-26T07:02:33.265Z,2708
2016-02-26T07:03:33.190Z,2740
2016-02-26T07:04:33.192Z,2760
2016-02-26T07:05:33.132Z,2796
2016-02-26T07:06:33.104Z,2788
2016-02-26T07:07:33.060Z,2764
2016-02-26T07:08:33.048Z,2924
2016-02-26T07:09:33.034Z,3120
2016-02-26T07:10:32.989Z,3220
2016-02-26T07:11:32.961Z,3268
2016-02-26T07:12:32.918Z,3292
2016-02-26T07:13:32.904Z,3328
2016-02-26T07:14:32.876Z,3360
2016-02-26T07:15:32.831Z,3396
2016-02-26T07:16:32.803Z,3404
2016-02-26T07:17:32.774Z,3384
2016-02-26T07:18:32.745Z,3372
2016-02-26T07:19:32.732Z,3360
2016-02-26T07:20:32.689Z,3352
2016-02-26T07:21:32.661Z,3396
2016-02-26T07:22:32.631Z,3488
2016-02-26T07:23:32.588Z,3616
2016-02-26T07:24:32.574Z,3796
2016-02-26T07:25:32.547Z,3936
2016-02-26T07:26:32.502Z,4056
2016-02-26T07:27:32.489Z,4160
2016-02-26T07:28:32.444Z,4248
2016-02-26T07:29:32.416Z,4356
2016-02-26T07:30:32.387Z,4484
2016-02-26T07:31:32.359Z,4612
2016-02-26T07:32:32.345Z,4732
2016-02-26T07:33:32.302Z,4812
2016-02-26T07:34:32.305Z,4832
2016-02-26T07:35:32.260Z,4872
2016-02-26T07:36:32.216Z,4912
2016-02-26T07:37:32.187Z,4980
2016-02-26T07:38:32.331Z,5052
2016-02-26T07:39:32.146Z,5100
2016-02-26T07:40:32.118Z,5192
2016-02-26T07:41:31.354Z,5336
2016-02-26T07:42:32.045Z,5468
2016-02-26T07:43:32.031Z,5584
2016-02-26T07:44:31.987Z,5632
2016-02-26T07:45:31.942Z,5640
2016-02-26T07:46:31.931Z,5620
2016-02-26T07:47:31.903Z,5572
2016-02-26T07:48:31.889Z,5448
2016-02-26T07:49:31.845Z,5244
2016-02-26T07:50:31.831Z,5100
2016-02-26T07:51:31.803Z,4992
2016-02-26T07:52:31.743Z,4980
2016-02-26T07:53:31.731Z,5168
2016-02-26T07:54:31.702Z,5392
2016-02-26T07:55:31.674Z,5548
2016-02-26T07:56:31.644Z,5688
2016-02-26T07:57:31.616Z,5732
2016-02-26T07:58:31.587Z,5724
2016-02-26T07:59:31.560Z,5632
2016-02-26T08:00:31.531Z,5580
2016-02-26T08:01:31.486Z,5668
2016-02-26T08:02:31.474Z,5932
2016-02-26T08:03:31.460Z,6308
2016-02-26T08:04:31.432Z,6660
2016-02-26T08:05:31.387Z,6984
2016-02-26T08:06:31.359Z,7308
2016-02-26T08:07:31.331Z,7552
2016-02-26T08:08:31.302Z,7744
2016-02-26T08:09:31.274Z,7896
2016-02-26T08:10:31.260Z,8000
2016-02-26T08:11:31.232Z,8088
2016-02-26T08:12:31.204Z,8156
2016-02-26T08:13:31.159Z,8240
2016-02-26T08:14:31.131Z,8392
2016-02-26T08:15:31.118Z,8552
2016-02-26T08:16:31.105Z,8648
2016-02-26T08:17:31.061Z,8628
2016-02-26T08:18:31.032Z,8584
2016-02-26T08:19:30.988Z,8592
2016-02-26T08:20:30.991Z,8556
2016-02-26T08:21:30.947Z,8420
2016-02-26T08:22:30.902Z,8312
2016-02-26T08:23:30.889Z,8348
2016-02-26T08:24:30.908Z,8496
2016-02-26T08:25:30.848Z,8712
2016-02-26T08:26:30.819Z,8944
2016-02-26T08:27:30.791Z,9264
2016-02-26T08:28:30.763Z,9668
2016-02-26T08:29:30.733Z,10108
2016-02-26T08:30:30.689Z,10480
2016-02-26T08:31:31.567Z,10772
2016-02-26T08:32:32.194Z,11020
2016-02-26T08:33:31.447Z,11224
2016-02-26T08:34:30.591Z,11352
2016-02-26T08:35:30.562Z,11464
2016-02-26T08:36:30.549Z,11604
2016-02-26T08:37:30.505Z,11724
2016-02-26T08:38:30.476Z,11788
2016-02-26T08:39:30.463Z,11808
2016-02-26T08:40:30.434Z,11832
2016-02-26T08:41:30.406Z,11824
2016-02-26T08:42:30.378Z,11764
2016-02-26T08:43:30.349Z,11748
2016-02-26T08:44:30.367Z,11756
2016-02-26T08:45:30.418Z,11788
2016-02-26T08:46:30.279Z,11852
2016-02-26T08:47:30.251Z,11904
2016-02-26T08:48:30.222Z,11848
2016-02-26T08:49:30.194Z,11720
2016-02-26T08:50:30.165Z,11636
2016-02-26T08:51:30.152Z,11588
2016-02-26T08:52:30.108Z,11584
2016-02-26T08:53:30.095Z,11616
2016-02-26T08:54:30.066Z,11724
2016-02-26T08:55:30.053Z,11884
2016-02-26T08:56:30.009Z,12004
2016-02-26T08:57:29.981Z,12040
2016-02-26T08:58:29.952Z,12036
2016-02-26T08:59:29.939Z,12020
2016-02-26T09:00:29.895Z,12036
2016-02-26T09:01:29.882Z,12096
2016-02-26T09:02:29.854Z,12148
2016-02-26T09:03:29.825Z,12168
2016-02-26T09:04:29.797Z,12212
2016-02-26T09:05:30.002Z,12368
2016-02-26T09:06:29.786Z,12644
2016-02-26T09:07:29.727Z,12964
2016-02-26T09:08:29.698Z,13308
2016-02-26T09:09:29.669Z,13592
2016-02-26T09:10:29.485Z,13776
2016-02-26T09:11:29.612Z,13904
2016-02-26T09:12:29.584Z,14044
2016-02-26T09:13:29.571Z,14212
2016-02-26T09:14:29.542Z,14416
2016-02-26T09:15:29.514Z,14608
2016-02-26T09:16:29.501Z,14720
2016-02-26T09:17:29.473Z,14740
2016-02-26T09:18:29.443Z,14740
2016-02-26T09:19:29.415Z,14768
2016-02-26T09:20:29.387Z,14868
2016-02-26T09:21:29.358Z,15036
2016-02-26T09:22:29.345Z,15200
2016-02-26T09:23:29.316Z,15324
2016-02-26T09:24:29.288Z,15460
2016-02-26T09:25:29.275Z,15604
2016-02-26T09:26:29.261Z,15716
2016-02-26T09:27:29.217Z,15816
2016-02-26T09:28:29.189Z,15964
2016-02-26T09:29:29.177Z,16076
2016-02-26T09:30:28.991Z,16140
2016-02-26T09:31:29.119Z,16180
2016-02-26T09:32:29.091Z,16244
2016-02-26T09:33:29.062Z,16336
2016-02-26T09:34:29.049Z,16420
2016-02-26T09:35:29.021Z,16436
2016-02-26T09:36:29.007Z,16352
2016-02-26T09:37:28.979Z,16240
2016-02-26T09:38:28.950Z,16220
2016-02-26T09:39:28.922Z,16352
2016-02-26T09:40:28.893Z,16612
2016-02-26T09:41:28.974Z,16876
2016-02-26T09:42:28.852Z,17280
2016-02-26T09:43:28.823Z,17440
2016-02-26T09:44:29.904Z,17504
2016-02-26T09:45:28.781Z,17504
2016-02-26T09:46:28.582Z,17408
2016-02-26T09:47:28.990Z,17344
2016-02-26T09:48:29.945Z,17056
2016-02-26T09:49:30.245Z,17004
2016-02-26T09:50:28.654Z,16948
2016-02-26T09:51:28.642Z,16940
2016-02-26T09:52:28.598Z,17000
2016-02-26T09:53:28.429Z,17128
2016-02-26T09:54:28.572Z,17440
2016-02-26T09:55:28.528Z,17632
2016-02-26T09:56:28.500Z,17824
2016-02-26T09:57:28.548Z,17920
2016-02-26T09:58:28.473Z,17920
2016-02-26T09:59:28.428Z,18016
2016-02-26T10:00:28.416Z,18080
2016-02-26T10:01:28.388Z,18176
2016-02-26T10:02:28.358Z,18176
2016-02-26T10:03:28.346Z,18176
2016-02-26T10:04:28.317Z,18080
2016-02-26T10:05:28.288Z,18016
2016-02-26T10:06:28.260Z,17984
2016-02-26T10:07:28.232Z,18016
2016-02-26T10:08:28.218Z,18048
2016-02-26T10:09:28.205Z,18080
2016-02-26T10:10:28.176Z,18080
2016-02-26T10:11:28.149Z,18080
2016-02-26T10:12:28.120Z,18208
2016-02-26T10:13:28.091Z,18304
2016-02-26T10:14:28.688Z,18336
2016-02-26T10:15:28.066Z,18240
2016-02-26T10:16:28.021Z,18112
2016-02-26T10:17:28.006Z,18016
2016-02-26T10:18:27.965Z,17984
2016-02-26T10:19:27.924Z,17984
2016-02-26T10:20:27.903Z,18048
2016-02-26T10:21:27.862Z,18112
2016-02-26T10:22:27.838Z,18208
2016-02-26T10:23:27.790Z,18304
2016-02-26T10:24:27.772Z,18272
2016-02-26T10:25:27.738Z,18272
2016-02-26T10:26:27.706Z,18272
2016-02-26T10:27:27.689Z,18240
2016-02-26T10:28:27.659Z,18240
2016-02-26T10:29:27.644Z,18208
2016-02-26T10:30:27.614Z,18144
2016-02-26T10:31:27.584Z,18080
2016-02-26T10:32:27.570Z,18080
2016-02-26T10:33:27.556Z,18080
2016-02-26T10:34:27.528Z,18080
2016-02-26T10:35:27.498Z,18016
2016-02-26T10:36:27.470Z,17760
2016-02-26T10:37:27.440Z,17252
2016-02-26T10:38:27.458Z,17008
2016-02-26T10:39:27.398Z,16632
2016-02-26T10:40:27.369Z,16532
2016-02-26T10:41:27.418Z,16992
2016-02-26T10:42:27.327Z,18048
2016-02-26T10:43:27.315Z,18944
2016-02-26T10:44:27.270Z,19456
2016-02-26T10:45:27.304Z,19680
2016-02-26T10:46:27.229Z,19648
2016-02-26T10:47:27.200Z,19520
2016-02-26T10:48:27.187Z,19520
2016-02-26T10:49:27.159Z,19840
2016-02-26T10:50:27.130Z,20320
2016-02-26T10:51:27.118Z,20768
2016-02-26T10:52:27.104Z,20960
2016-02-26T10:53:27.076Z,21056
2016-02-26T10:54:27.047Z,21248
2016-02-26T10:55:26.862Z,21568
2016-02-26T10:56:27.005Z,21888
2016-02-26T10:57:26.992Z,22336
2016-02-26T10:58:26.949Z,22784
2016-02-26T10:59:26.920Z,23072
2016-02-26T11:00:26.907Z,23040
2016-02-26T11:01:26.894Z,22688
2016-02-26T11:02:26.866Z,21952
2016-02-26T11:03:26.837Z,21056
2016-02-26T11:04:26.824Z,20160
2016-02-26T11:05:26.796Z,19232
2016-02-26T11:06:26.782Z,18528
2016-02-26T11:07:26.754Z,18336
2016-02-26T11:08:26.725Z,18368
2016-02-26T11:09:26.697Z,18688
2016-02-26T11:10:26.685Z,18976
2016-02-26T11:11:26.671Z,18880
2016-02-26T11:12:26.657Z,18720
2016-02-26T11:13:26.630Z,18784
2016-02-26T11:14:26.601Z,18560
2016-02-26T11:15:26.557Z,17984
2016-02-26T11:16:26.543Z,17188
2016-02-26T11:17:26.515Z,16756
2016-02-26T11:18:26.534Z,16540
2016-02-26T11:19:26.473Z,16480
2016-02-26T11:20:26.476Z,16592
2016-02-26T11:21:26.432Z,16764
2016-02-26T11:22:26.419Z,16828
2016-02-26T11:23:26.406Z,16888
2016-02-26T11:24:26.377Z,16848
2016-02-26T11:25:26.364Z,17360
2016-02-26T11:26:26.320Z,17984
2016-02-26T11:27:26.292Z,18112
2016-02-26T11:28:26.263Z,18208
2016-02-26T11:29:26.267Z,18368
2016-02-26T11:30:26.238Z,18848
2016-02-26T11:31:26.225Z,19360
2016-02-26T11:32:26.180Z,20128
2016-02-26T11:33:26.152Z,20448
2016-02-26T11:34:26.139Z,20224
2016-02-26T11:35:26.126Z,19840
2016-02-26T11:36:26.097Z,19072
2016-02-26T11:37:26.054Z,18336
2016-02-26T11:38:26.041Z,17856
2016-02-26T11:39:26.028Z,17148
2016-02-26T11:40:25.999Z,17140
2016-02-26T11:41:25.970Z,16816
2016-02-26T11:42:25.958Z,16464
2016-02-26T11:43:25.929Z,16520
2016-02-26T11:44:26.026Z,16700
2016-02-26T11:45:25.887Z,17208
2016-02-26T11:46:25.859Z,17888
2016-02-26T11:47:25.831Z,18432
2016-02-26T11:48:25.802Z,18720
2016-02-26T11:49:25.789Z,18656
2016-02-26T11:50:25.759Z,18656
2016-02-26T11:51:25.748Z,18976
2016-02-26T11:52:25.734Z,18944
2016-02-26T11:53:25.706Z,18944
2016-02-26T11:54:25.678Z,18688
2016-02-26T11:55:25.665Z,18688
2016-02-26T11:56:25.636Z,18752
2016-02-26T11:57:25.608Z,19008
2016-02-26T11:58:25.594Z,19136
2016-02-26T11:59:25.597Z,19104
2016-02-26T12:00:25.537Z,19040
2016-02-26T12:01:25.711Z,18816
2016-02-26T12:02:25.496Z,18848
2016-02-26T12:03:25.483Z,18976
2016-02-26T12:04:25.454Z,19200
2016-02-26T12:05:25.441Z,19424
2016-02-26T12:06:25.397Z,19840
2016-02-26T12:07:25.385Z,19904
2016-02-26T12:08:25.355Z,19648
2016-02-26T12:09:25.343Z,19264
2016-02-26T12:10:25.313Z,19328
2016-02-26T12:11:25.285Z,19232
2016-02-26T12:12:25.288Z,19104
2016-02-26T12:13:25.259Z,19008
2016-02-26T12:14:25.262Z,19168
2016-02-26T12:15:25.218Z,18752
2016-02-26T12:16:25.174Z,18240
2016-02-26T12:17:25.161Z,17728
2016-02-26T12:18:25.148Z,17008
2016-02-26T12:19:25.120Z,16476
2016-02-26T12:20:25.090Z,16068
2016-02-26T12:21:25.109Z,15924
2016-02-26T12:22:25.034Z,15972
2016-02-26T12:23:25.036Z,16344
2016-02-26T12:24:25.008Z,16496
2016-02-26T12:25:24.979Z,16460
2016-02-26T12:26:24.967Z,16624
2016-02-26T12:27:24.938Z,16936
2016-02-26T12:28:24.941Z,17312
2016-02-26T12:29:24.928Z,17536
2016-02-26T12:30:24.883Z,17664
2016-02-26T12:31:24.855Z,17600
2016-02-26T12:32:24.842Z,17600
2016-02-26T12:33:24.814Z,17632
2016-02-26T12:34:24.785Z,17408
2016-02-26T12:35:24.756Z,17152
2016-02-26T12:36:24.743Z,16768
2016-02-26T12:37:24.636Z,16548
2016-02-26T12:38:24.905Z,16316
2016-02-26T12:39:24.689Z,16160
2016-02-26T12:40:24.660Z,16188
2016-02-26T12:41:24.647Z,16300
2016-02-26T12:42:24.619Z,16352
2016-02-26T12:43:24.591Z,16484
2016-02-26T12:44:24.437Z,16788
2016-02-26T12:45:24.549Z,16816
2016-02-26T12:46:24.520Z,16556
2016-02-26T12:47:24.523Z,16148
2016-02-26T12:48:24.479Z,15920
2016-02-26T12:49:24.465Z,16068
2016-02-26T12:50:24.437Z,16452
2016-02-26T12:51:24.409Z,16356
2016-02-26T12:52:24.396Z,15792
2016-02-26T12:53:24.367Z,15032
2016-02-26T12:54:24.339Z,14312
2016-02-26T12:55:24.326Z,13896
2016-02-26T12:56:24.312Z,13668
2016-02-26T12:57:24.284Z,13340
2016-02-26T12:58:24.272Z,12896
2016-02-26T12:59:24.242Z,12540
2016-02-26T13:00:24.214Z,12316
2016-02-26T13:01:25.420Z,12152
2016-02-26T13:02:24.172Z,12084
2016-02-26T13:03:24.161Z,12120
2016-02-26T13:04:24.130Z,12260
2016-02-26T13:05:24.118Z,12304
2016-02-26T13:06:24.089Z,12288
2016-02-26T13:07:24.061Z,12188
2016-02-26T13:08:24.048Z,12172
2016-02-26T13:09:24.019Z,12328
2016-02-26T13:10:24.022Z,12604
2016-02-26T13:11:23.977Z,12740
2016-02-26T13:12:23.949Z,12700
2016-02-26T13:13:23.952Z,12484
2016-02-26T13:14:23.907Z,12228
2016-02-26T13:15:23.895Z,11976
2016-02-26T13:16:23.866Z,11664
2016-02-26T13:17:23.854Z,11504
2016-02-26T13:18:23.871Z,11472
2016-02-26T13:19:23.797Z,11356
2016-02-26T13:20:23.784Z,11152
2016-02-26T13:21:23.754Z,10992
2016-02-26T13:22:23.742Z,10920
2016-02-26T13:23:23.713Z,10908
2016-02-26T13:24:23.685Z,10876
2016-02-26T13:25:23.672Z,10848
2016-02-26T13:26:23.628Z,10840
2016-02-26T13:27:23.614Z,10928
2016-02-26T13:28:23.602Z,11072
2016-02-26T13:29:23.574Z,11288
2016-02-26T13:30:23.545Z,11604
2016-02-26T13:31:23.516Z,12032
2016-02-26T13:32:23.503Z,12464
2016-02-26T13:33:23.475Z,12884
2016-02-26T13:34:23.462Z,13232
2016-02-26T13:35:23.434Z,13524
2016-02-26T13:36:23.420Z,13740
2016-02-26T13:37:23.392Z,13816
2016-02-26T13:38:23.363Z,13732
2016-02-26T13:39:23.335Z,13568
2016-02-26T13:40:23.400Z,13444
2016-02-26T13:41:23.309Z,13464
2016-02-26T13:42:23.265Z,13556
2016-02-26T13:43:23.268Z,13596
2016-02-26T13:44:23.228Z,13572
2016-02-26T13:45:23.199Z,13556